createdAt,value
2019-04-07T00:01:35.492Z,11.00
2019-04-07T00:04:05.295Z,11.00
2019-04-07T00:06:35.069Z,10.90
2019-04-07T00:09:07.067Z,10.90
2019-04-07T00:11:36.728Z,10.90
2019-04-07T00:14:06.158Z,11.00
2019-04-07T00:16:35.443Z,11.10
2019-04-07T00:19:05.417Z,11.00
2019-04-07T00:21:35.275Z,11.00
2019-04-07T00:24:04.718Z,11.00
2019-04-07T00:26:34.023Z,11.00
2019-04-07T00:29:03.338Z,10.90
2019-04-07T00:31:32.703Z,10.90
2019-04-07T00:34:02.054Z,10.90
2019-04-07T00:36:31.362Z,10.90
2019-04-07T00:39:00.756Z,10.90
2019-04-07T00:41:30.096Z,10.90
2019-04-07T00:43:59.992Z,10.90
2019-04-07T00:46:29.623Z,10.80
2019-04-07T00:48:59.434Z,10.80
2019-04-07T00:51:28.853Z,10.70
2019-04-07T00:53:58.147Z,10.60
2019-04-07T00:56:27.983Z,10.60
2019-04-07T00:58:58.062Z,10.50
2019-04-07T01:01:27.492Z,10.50
2019-04-07T01:03:56.888Z,10.50
2019-04-07T01:06:26.881Z,10.60
2019-04-07T01:08:56.891Z,10.70
2019-04-07T01:11:26.701Z,10.70
2019-04-07T01:13:56.265Z,10.70
2019-04-07T01:16:26.200Z,10.70
2019-04-07T01:18:55.757Z,10.80
2019-04-07T01:21:25.078Z,10.70
2019-04-07T01:23:54.507Z,10.70
2019-04-07T01:26:23.921Z,10.70
2019-04-07T01:28:54.518Z,10.70
2019-04-07T01:31:24.294Z,10.70
2019-04-07T01:33:54.285Z,10.60
2019-04-07T01:36:23.928Z,10.60
2019-04-07T01:38:53.322Z,10.50
2019-04-07T01:41:27.809Z,10.40
2019-04-07T01:44:05.398Z,10.40
2019-04-07T01:47:03.479Z,10.40
2019-04-07T01:49:45.137Z,10.40
2019-04-07T01:52:33.774Z,10.40
2019-04-07T01:55:14.645Z,10.40
2019-04-07T01:58:03.256Z,10.40
2019-04-07T02:00:50.552Z,10.40
2019-04-07T02:03:38.155Z,10.50
2019-04-07T02:06:31.197Z,10.60
2019-04-07T02:09:19.519Z,10.60
2019-04-07T02:12:02.697Z,10.70
2019-04-07T02:14:55.058Z,10.70
2019-04-07T02:17:46.150Z,10.80
2019-04-07T02:21:03.378Z,10.80
2019-04-07T02:23:50.660Z,10.80
2019-04-07T02:26:31.013Z,10.90
2019-04-07T02:29:18.067Z,10.90
2019-04-07T02:32:07.879Z,10.90
2019-04-07T02:34:45.540Z,10.90
2019-04-07T02:37:20.701Z,10.90
2019-04-07T02:40:26.922Z,11.00
2019-04-07T02:43:06.847Z,11.00
2019-04-07T02:45:47.804Z,11.00
2019-04-07T02:48:26.569Z,11.00
2019-04-07T02:51:03.188Z,11.00
2019-04-07T02:53:51.003Z,11.00
2019-04-07T02:56:46.150Z,11.00
2019-04-07T02:59:49.702Z,11.00
2019-04-07T03:02:27.239Z,11.00
2019-04-07T03:05:05.998Z,11.00
2019-04-07T03:08:01.567Z,11.00
2019-04-07T03:10:48.585Z,11.00
2019-04-07T03:13:46.470Z,10.90
2019-04-07T03:16:47.506Z,10.90
2019-04-07T03:19:26.483Z,10.90
2019-04-07T03:22:04.193Z,10.90
2019-04-07T03:24:48.357Z,10.90
2019-04-07T03:27:36.576Z,10.90
2019-04-07T03:30:33.163Z,10.90
2019-04-07T03:33:33.519Z,10.90
2019-04-07T03:36:18.538Z,10.90
2019-04-07T03:39:06.475Z,10.90
2019-04-07T03:41:47.259Z,10.90
2019-04-07T03:44:25.496Z,10.90
2019-04-07T03:47:03.306Z,10.90
2019-04-07T03:49:45.951Z,10.90
2019-04-07T03:52:46.856Z,10.80
2019-04-07T03:55:38.531Z,10.80
2019-04-07T03:58:25.998Z,10.80
2019-04-07T04:01:33.215Z,10.80
2019-04-07T04:04:22.328Z,10.70
2019-04-07T04:07:20.206Z,10.70
2019-04-07T04:09:58.169Z,10.70
2019-04-07T04:12:41.608Z,10.70
2019-04-07T04:15:20.757Z,10.70
2019-04-07T04:17:51.171Z,10.70
2019-04-07T04:20:21.517Z,10.70
2019-04-07T04:22:50.997Z,10.70
2019-04-07T04:25:21.248Z,10.60
2019-04-07T04:27:51.093Z,10.70
2019-04-07T04:30:21.156Z,10.70
2019-04-07T04:32:50.736Z,10.70
2019-04-07T04:35:20.124Z,10.70
2019-04-07T04:37:52.324Z,10.70
2019-04-07T04:40:20.747Z,10.70
2019-04-07T04:42:50.597Z,10.70
2019-04-07T04:45:20.283Z,10.80
2019-04-07T04:47:49.584Z,10.80
2019-04-07T04:50:18.908Z,10.80
2019-04-07T04:52:48.730Z,10.90
2019-04-07T04:55:18.887Z,10.90
2019-04-07T04:57:48.660Z,10.90
2019-04-07T05:00:18.746Z,10.90
2019-04-07T05:02:49.440Z,11.00
2019-04-07T05:05:18.986Z,11.00
2019-04-07T05:07:57.807Z,11.00
2019-04-07T05:10:19.388Z,11.00
2019-04-07T05:12:48.770Z,11.10
2019-04-07T05:15:18.127Z,11.10
2019-04-07T05:17:47.486Z,11.10
2019-04-07T05:20:17.312Z,11.10
2019-04-07T05:22:47.408Z,11.10
2019-04-07T05:25:17.401Z,11.10
2019-04-07T05:27:46.985Z,11.10
2019-04-07T05:30:16.843Z,11.10
2019-04-07T05:32:46.907Z,11.20
2019-04-07T05:35:16.420Z,11.20
2019-04-07T05:37:45.934Z,11.20
2019-04-07T05:40:16.546Z,11.20
2019-04-07T05:42:46.588Z,11.20
2019-04-07T05:45:16.084Z,11.10
2019-04-07T05:47:48.728Z,11.10
2019-04-07T05:50:16.631Z,11.10
2019-04-07T05:52:46.583Z,11.10
2019-04-07T05:55:20.626Z,11.10
2019-04-07T05:57:48.519Z,11.20
2019-04-07T06:00:18.847Z,11.20
2019-04-07T06:02:48.563Z,11.30
2019-04-07T06:05:18.634Z,11.30
2019-04-07T06:07:50.493Z,11.30
2019-04-07T06:10:22.302Z,11.30
2019-04-07T06:12:51.124Z,11.20
2019-04-07T06:15:22.248Z,11.20
2019-04-07T06:17:52.170Z,11.10
2019-04-07T06:20:21.560Z,11.00
2019-04-07T06:22:53.612Z,11.00
2019-04-07T06:25:21.954Z,11.00
2019-04-07T06:27:51.871Z,11.00
2019-04-07T06:30:23.286Z,11.00
2019-04-07T06:32:52.869Z,11.10
2019-04-07T06:35:22.471Z,11.10
2019-04-07T06:37:52.076Z,11.10
2019-04-07T06:40:22.283Z,11.10
2019-04-07T06:42:52.398Z,11.10
2019-04-07T06:45:25.451Z,11.10
2019-04-07T06:47:57.102Z,11.10
2019-04-07T06:50:47.705Z,11.10
2019-04-07T06:53:30.187Z,11.10
2019-04-07T06:56:15.384Z,11.10
2019-04-07T06:59:02.559Z,11.00
2019-04-07T07:01:59.172Z,11.00
2019-04-07T07:04:45.810Z,11.00
2019-04-07T07:07:53.275Z,11.10
2019-04-07T07:10:37.788Z,11.10
2019-04-07T07:13:32.402Z,11.20
2019-04-07T07:16:26.074Z,11.20
2019-04-07T07:19:17.484Z,11.30
2019-04-07T07:22:13.138Z,11.40
2019-04-07T07:24:39.646Z,11.40
2019-04-07T07:27:10.571Z,11.40
2019-04-07T07:29:40.063Z,11.40
2019-04-07T07:32:09.462Z,11.50
2019-04-07T07:34:41.411Z,11.50
2019-04-07T07:37:10.537Z,11.60
2019-04-07T07:39:42.660Z,11.50
2019-04-07T07:42:11.435Z,11.50
2019-04-07T07:44:41.800Z,11.60
2019-04-07T07:47:11.932Z,11.50
2019-04-07T07:49:42.457Z,11.50
2019-04-07T07:52:12.540Z,11.40
2019-04-07T07:54:42.936Z,11.40
2019-04-07T07:57:13.379Z,11.40
2019-04-07T07:59:43.223Z,11.40
2019-04-07T08:02:14.749Z,11.50
2019-04-07T08:04:44.307Z,11.50
2019-04-07T08:07:16.479Z,11.40
2019-04-07T08:09:45.227Z,11.40
2019-04-07T08:12:15.175Z,11.40
2019-04-07T08:14:50.259Z,11.40
2019-04-07T08:17:15.903Z,11.40
2019-04-07T08:19:45.653Z,11.50
2019-04-07T08:22:26.168Z,11.60
2019-04-07T08:24:49.632Z,11.80
2019-04-07T08:27:18.147Z,11.90
2019-04-07T08:29:48.496Z,12.00
2019-04-07T08:32:18.709Z,12.00
2019-04-07T08:34:48.092Z,12.10
2019-04-07T08:37:17.933Z,12.10
2019-04-07T08:39:47.627Z,12.00
2019-04-07T08:42:18.711Z,12.10
2019-04-07T08:44:48.061Z,12.20
2019-04-07T08:47:21.202Z,12.10
2019-04-07T08:49:48.388Z,12.20
2019-04-07T08:52:18.516Z,12.10
2019-04-07T08:54:50.562Z,12.10
2019-04-07T08:57:19.688Z,12.00
2019-04-07T08:59:49.544Z,12.00
2019-04-07T09:02:19.181Z,11.90
2019-04-07T09:04:51.221Z,11.90
2019-04-07T09:07:23.394Z,11.80
2019-04-07T09:09:51.709Z,11.80
2019-04-07T09:12:21.773Z,11.80
2019-04-07T09:14:51.777Z,11.80
2019-04-07T09:17:47.426Z,11.80
2019-04-07T09:20:34.674Z,11.80
2019-04-07T09:23:15.541Z,11.80
2019-04-07T09:26:02.689Z,11.80
2019-04-07T09:28:55.807Z,11.70
2019-04-07T09:31:42.880Z,11.80
2019-04-07T09:34:30.243Z,11.80
2019-04-07T09:37:18.360Z,11.90
2019-04-07T09:40:06.782Z,12.00
2019-04-07T09:43:01.005Z,12.00
2019-04-07T09:45:51.856Z,12.10
2019-04-07T09:48:52.856Z,12.10
2019-04-07T09:51:47.251Z,12.20
2019-04-07T09:54:34.343Z,12.20
2019-04-07T09:57:28.548Z,12.10
2019-04-07T10:00:16.040Z,12.10
2019-04-07T10:02:55.710Z,12.10
2019-04-07T10:05:44.074Z,12.20
2019-04-07T10:08:40.675Z,12.20
2019-04-07T10:11:29.560Z,12.20
2019-04-07T10:14:19.546Z,12.30
2019-04-07T10:16:57.768Z,12.40
2019-04-07T10:20:04.346Z,12.50
2019-04-07T10:22:59.529Z,12.50
2019-04-07T10:25:44.533Z,12.60
2019-04-07T10:28:36.696Z,12.70
2019-04-07T10:31:20.789Z,12.90
2019-04-07T10:34:13.202Z,13.10
2019-04-07T10:37:03.688Z,13.10
2019-04-07T10:40:01.738Z,13.10
2019-04-07T10:42:49.147Z,13.10
2019-04-07T10:45:34.063Z,13.00
2019-04-07T10:48:19.101Z,12.90
2019-04-07T10:51:07.884Z,12.80
2019-04-07T10:53:54.929Z,12.80
2019-04-07T10:56:32.021Z,12.80
2019-04-07T10:59:23.163Z,12.80
2019-04-07T11:02:29.445Z,12.70
2019-04-07T11:05:24.384Z,12.70
2019-04-07T11:08:22.093Z,12.80
2019-04-07T11:11:10.372Z,12.70
2019-04-07T11:14:02.115Z,12.70
2019-04-07T11:17:02.490Z,12.70
2019-04-07T11:20:02.989Z,12.70
2019-04-07T11:22:50.110Z,12.70
2019-04-07T11:25:41.512Z,12.60
2019-04-07T11:28:32.658Z,12.50
2019-04-07T11:31:23.606Z,12.40
2019-04-07T11:34:11.253Z,12.30
2019-04-07T11:36:52.906Z,12.20
2019-04-07T11:39:44.636Z,12.20
2019-04-07T11:42:26.095Z,12.10
2019-04-07T11:45:09.237Z,11.90
2019-04-07T11:47:56.958Z,12.00
2019-04-07T11:50:36.287Z,12.00
2019-04-07T11:53:44.177Z,12.10
2019-04-07T11:56:32.194Z,12.10
2019-04-07T11:59:20.335Z,12.20
2019-04-07T12:02:19.830Z,12.40
2019-04-07T12:05:06.504Z,12.50
2019-04-07T12:08:01.735Z,12.60
2019-04-07T12:10:58.574Z,12.70
2019-04-07T12:13:45.202Z,12.80
2019-04-07T12:16:33.802Z,12.80
2019-04-07T12:19:26.043Z,12.80
2019-04-07T12:22:20.693Z,12.90
2019-04-07T12:25:15.804Z,12.90
2019-04-07T12:28:01.474Z,13.00
2019-04-07T12:30:52.976Z,13.00
2019-04-07T12:33:31.199Z,13.10
2019-04-07T12:36:14.895Z,13.10
2019-04-07T12:39:06.149Z,13.10
2019-04-07T12:41:47.664Z,13.10
2019-04-07T12:44:25.660Z,13.20
2019-04-07T12:47:13.407Z,13.30
2019-04-07T12:50:02.106Z,13.30
2019-04-07T12:52:54.030Z,13.40
2019-04-07T12:55:41.729Z,13.40
2019-04-07T12:58:28.666Z,13.40
2019-04-07T13:01:20.004Z,13.50
2019-04-07T13:04:08.782Z,13.50
2019-04-07T13:06:53.449Z,13.50
2019-04-07T13:09:48.077Z,13.40
2019-04-07T13:12:31.055Z,13.40
2019-04-07T13:15:18.359Z,13.40
2019-04-07T13:17:53.993Z,13.40
2019-04-07T13:20:39.706Z,13.40
2019-04-07T13:23:14.158Z,13.30
2019-04-07T13:25:56.659Z,13.30
2019-04-07T13:28:37.074Z,13.30
2019-04-07T13:31:19.105Z,13.30
2019-04-07T13:34:06.485Z,13.20
2019-04-07T13:36:55.298Z,13.30
2019-04-07T13:39:40.693Z,13.30
2019-04-07T13:42:25.432Z,13.40
2019-04-07T13:45:04.594Z,13.40
2019-04-07T13:48:11.606Z,13.40
2019-04-07T13:51:13.152Z,13.50
2019-04-07T13:54:02.172Z,13.50
2019-04-07T13:57:00.179Z,13.50
2019-04-07T13:59:48.819Z,13.50
2019-04-07T14:02:42.153Z,13.40
2019-04-07T14:05:28.455Z,13.40
2019-04-07T14:08:19.920Z,13.40
2019-04-07T14:11:10.177Z,13.40
2019-04-07T14:14:00.212Z,13.30
2019-04-07T14:16:41.270Z,13.30
2019-04-07T14:19:24.195Z,13.30
2019-04-07T14:22:06.794Z,13.20
2019-04-07T14:24:51.550Z,13.20
2019-04-07T14:27:29.734Z,13.20
2019-04-07T14:30:13.689Z,13.20
2019-04-07T14:32:52.043Z,13.20
2019-04-07T14:35:48.831Z,13.20
2019-04-07T14:38:37.799Z,13.30
2019-04-07T14:41:25.811Z,13.30
2019-04-07T14:44:17.298Z,13.40
2019-04-07T14:47:04.170Z,13.40
2019-04-07T14:49:58.444Z,13.40
2019-04-07T14:52:48.260Z,13.40
2019-04-07T14:55:50.147Z,13.50
2019-04-07T14:58:38.905Z,13.50
2019-04-07T15:01:20.264Z,13.50
2019-04-07T15:03:50.108Z,13.50
2019-04-07T15:06:19.527Z,13.50
2019-04-07T15:08:56.838Z,13.60
2019-04-07T15:11:38.707Z,13.60
2019-04-07T15:14:08.296Z,13.70
2019-04-07T15:16:38.270Z,13.80
2019-04-07T15:19:08.398Z,13.80
2019-04-07T15:21:37.964Z,13.80
2019-04-07T15:24:08.542Z,13.80
2019-04-07T15:26:38.965Z,13.80
2019-04-07T15:29:10.687Z,13.80
2019-04-07T15:31:40.550Z,13.80
2019-04-07T15:34:11.930Z,13.80
2019-04-07T15:36:41.466Z,13.80
2019-04-07T15:39:11.086Z,13.80
2019-04-07T15:41:42.520Z,13.80
2019-04-07T15:44:14.062Z,13.80
2019-04-07T15:46:42.705Z,13.80
2019-04-07T15:49:12.670Z,13.70
2019-04-07T15:51:43.113Z,13.80
2019-04-07T15:54:13.475Z,13.70
2019-04-07T15:56:45.427Z,13.70
2019-04-07T15:59:16.526Z,13.70
2019-04-07T16:01:45.048Z,13.70
2019-04-07T16:04:14.346Z,13.70
2019-04-07T16:06:47.103Z,13.80
2019-04-07T16:09:29.697Z,13.70
2019-04-07T16:11:46.861Z,13.70
2019-04-07T16:14:17.595Z,13.70
2019-04-07T16:16:47.289Z,13.70
2019-04-07T16:19:21.972Z,13.70
2019-04-07T16:21:48.252Z,13.70
2019-04-07T16:24:17.897Z,13.70
2019-04-07T16:26:47.955Z,13.70
2019-04-07T16:29:19.053Z,13.70
2019-04-07T16:31:48.926Z,13.60
2019-04-07T16:34:19.139Z,13.40
2019-04-07T16:36:50.987Z,13.20
2019-04-07T16:39:19.897Z,13.10
2019-04-07T16:41:50.169Z,13.10
2019-04-07T16:44:19.641Z,13.10
2019-04-07T16:46:48.989Z,13.10
2019-04-07T16:49:19.271Z,13.10
2019-04-07T16:51:49.431Z,13.00
2019-04-07T16:54:18.760Z,13.00
2019-04-07T16:56:50.814Z,12.90
2019-04-07T16:59:19.449Z,12.80
2019-04-07T17:01:49.682Z,12.80
2019-04-07T17:04:20.098Z,12.70
2019-04-07T17:06:59.553Z,12.70
2019-04-07T17:09:24.760Z,12.70
2019-04-07T17:11:51.970Z,12.70
2019-04-07T17:14:22.483Z,12.70
2019-04-07T17:16:52.264Z,12.90
2019-04-07T17:19:21.647Z,12.80
2019-04-07T17:21:51.801Z,12.70
2019-04-07T17:24:25.029Z,12.70
2019-04-07T17:26:52.919Z,12.70
2019-04-07T17:29:23.255Z,12.60
2019-04-07T17:31:53.053Z,12.50
2019-04-07T17:34:22.914Z,12.50
2019-04-07T17:36:55.977Z,12.40
2019-04-07T17:39:51.426Z,12.40
2019-04-07T17:42:25.604Z,12.30
2019-04-07T17:45:02.240Z,12.30
2019-04-07T17:47:49.756Z,12.20
2019-04-07T17:50:37.062Z,12.20
2019-04-07T17:53:21.284Z,12.20
2019-04-07T17:56:16.295Z,12.20
2019-04-07T17:59:00.692Z,12.20
2019-04-07T18:01:57.963Z,12.20
2019-04-07T18:04:55.176Z,12.10
2019-04-07T18:07:52.455Z,12.00
2019-04-07T18:10:44.706Z,12.00
2019-04-07T18:13:43.832Z,11.90
2019-04-07T18:16:18.045Z,12.00
2019-04-07T18:19:05.913Z,12.00
2019-04-07T18:21:53.888Z,12.00
2019-04-07T18:24:36.312Z,12.00
2019-04-07T18:27:17.157Z,12.00
2019-04-07T18:30:08.436Z,12.00
2019-04-07T18:33:00.789Z,12.00
2019-04-07T18:35:48.709Z,12.00
2019-04-07T18:38:37.445Z,12.00
2019-04-07T18:41:41.916Z,12.00
2019-04-07T18:44:22.838Z,12.00
2019-04-07T18:47:08.629Z,11.90
2019-04-07T18:49:55.544Z,11.90
2019-04-07T18:52:54.327Z,11.90
2019-04-07T18:55:57.995Z,11.90
2019-04-07T18:58:51.068Z,11.80
2019-04-07T19:01:56.222Z,11.70
2019-04-07T19:04:38.063Z,11.70
2019-04-07T19:07:19.308Z,11.70
2019-04-07T19:10:09.442Z,11.60
2019-04-07T19:13:05.710Z,11.60
2019-04-07T19:16:11.845Z,11.60
2019-04-07T19:19:10.622Z,11.50
2019-04-07T19:21:57.463Z,11.40
2019-04-07T19:24:44.678Z,11.40
2019-04-07T19:27:33.239Z,11.30
2019-04-07T19:30:22.577Z,11.30
2019-04-07T19:33:29.742Z,11.30
2019-04-07T19:36:33.468Z,11.30
2019-04-07T19:39:23.613Z,11.20
2019-04-07T19:42:08.998Z,11.20
2019-04-07T19:45:10.086Z,11.20
2019-04-07T19:48:05.040Z,11.10
2019-04-07T19:50:55.649Z,11.10
2019-04-07T19:53:37.281Z,11.10
2019-04-07T19:56:25.216Z,11.10
2019-04-07T19:59:30.097Z,11.00
2019-04-07T20:02:07.532Z,10.90
2019-04-07T20:05:02.020Z,10.90
2019-04-07T20:07:42.057Z,10.80
2019-04-07T20:10:33.772Z,10.80
2019-04-07T20:13:21.955Z,10.80
2019-04-07T20:16:11.831Z,10.80
2019-04-07T20:19:10.852Z,10.80
2019-04-07T20:22:11.216Z,10.80
2019-04-07T20:24:58.648Z,10.70
2019-04-07T20:27:36.127Z,10.60
2019-04-07T20:30:17.803Z,10.60
2019-04-07T20:32:56.727Z,10.60
2019-04-07T20:35:57.108Z,10.50
2019-04-07T20:38:51.209Z,10.50
2019-04-07T20:41:43.169Z,10.50
2019-04-07T20:44:35.654Z,10.50
2019-04-07T20:47:17.625Z,10.50
2019-04-07T20:49:56.758Z,10.50
2019-04-07T20:52:36.263Z,10.50
2019-04-07T20:55:21.257Z,10.50
2019-04-07T20:58:25.765Z,10.60
2019-04-07T21:01:20.912Z,10.60
2019-04-07T21:04:19.974Z,10.60
2019-04-07T21:07:08.461Z,10.60
2019-04-07T21:09:43.856Z,10.50
2019-04-07T21:12:19.331Z,10.50
2019-04-07T21:15:16.925Z,10.50
2019-04-07T21:18:00.538Z,10.50
2019-04-07T21:20:52.564Z,10.50
2019-04-07T21:23:57.346Z,10.50
2019-04-07T21:26:35.969Z,10.50
2019-04-07T21:29:30.524Z,10.50
2019-04-07T21:32:10.559Z,10.50
2019-04-07T21:35:00.351Z,10.40
2019-04-07T21:37:47.730Z,10.40
2019-04-07T21:40:39.523Z,10.40
2019-04-07T21:43:18.900Z,10.40
2019-04-07T21:46:26.094Z,10.30
2019-04-07T21:49:14.542Z,10.30
2019-04-07T21:51:57.030Z,10.30
2019-04-07T21:54:35.689Z,10.20
2019-04-07T21:57:25.558Z,10.20
2019-04-07T22:00:16.755Z,10.20
2019-04-07T22:03:01.323Z,10.20
2019-04-07T22:05:43.280Z,10.20
2019-04-07T22:08:25.257Z,10.20
2019-04-07T22:10:55.376Z,10.10
2019-04-07T22:13:25.826Z,10.20
2019-04-07T22:15:59.319Z,10.10
2019-04-07T22:18:26.813Z,10.10
2019-04-07T22:20:57.062Z,10.10
2019-04-07T22:23:29.608Z,10.10
2019-04-07T22:25:57.562Z,10.10
2019-04-07T22:28:28.395Z,10.10
2019-04-07T22:30:57.932Z,10.10
2019-04-07T22:33:30.118Z,10.00
2019-04-07T22:35:59.708Z,10.00
2019-04-07T22:38:30.301Z,10.00
2019-04-07T22:41:00.526Z,10.00
2019-04-07T22:43:30.120Z,10.00
2019-04-07T22:46:07.659Z,10.00
2019-04-07T22:48:31.002Z,9.90
2019-04-07T22:51:02.561Z,10.00
2019-04-07T22:53:31.541Z,9.90
2019-04-07T22:56:04.780Z,9.90
2019-04-07T22:58:31.952Z,9.90
2019-04-07T23:01:01.274Z,9.90
2019-04-07T23:03:31.371Z,9.80
2019-04-07T23:06:01.147Z,9.80
2019-04-07T23:08:30.526Z,9.80
2019-04-07T23:11:00.093Z,9.80
2019-04-07T23:13:30.045Z,9.80
2019-04-07T23:16:08.763Z,9.80
2019-04-07T23:18:31.688Z,9.80
2019-04-07T23:21:01.318Z,9.80
2019-04-07T23:23:31.080Z,9.70
2019-04-07T23:26:00.491Z,9.70
2019-04-07T23:28:30.669Z,9.70
2019-04-07T23:31:00.290Z,9.70
2019-04-07T23:33:29.835Z,9.70
2019-04-07T23:35:59.761Z,9.70
2019-04-07T23:38:30.333Z,9.70
2019-04-07T23:40:59.888Z,9.60
2019-04-07T23:43:29.216Z,9.60
2019-04-07T23:45:58.583Z,9.60
2019-04-07T23:48:28.428Z,9.60
2019-04-07T23:50:58.310Z,9.70
2019-04-07T23:54:04.332Z,9.50
2019-04-07T23:56:33.788Z,9.40
2019-04-07T23:59:03.075Z,9.40
